Time;durP1;ratioP1;P1;durP2;ratioP2;P2;SDS_P1;SDS_P2;PMS_P1;PMS_P2;Temp;Humidity;BMP_temperature;BMP_pressure;BME280_temperature;BME280_humidity;BME280_pressure;Samples;Min_cycle;Max_cycle;Signal;HPM_P1;HPM_P2
2022/08/31 00:04:35;;;;;;;3.90;2.78;;;16.40;99.00;;;;;;5035158;28;20479;-75
2022/08/31 00:07:00;;;;;;;4.38;3.17;;;16.30;98.90;;;;;;5050716;28;20112;-74
2022/08/31 00:09:26;;;;;;;5.15;3.67;;;16.30;98.80;;;;;;5034865;28;20041;-74
2022/08/31 00:11:52;;;;;;;6.35;3.28;;;16.30;98.80;;;;;;5051030;28;20053;-74
2022/08/31 00:14:17;;;;;;;7.82;3.58;;;16.30;98.90;;;;;;5055372;28;20045;-74
2022/08/31 00:16:44;;;;;;;4.63;3.35;;;16.20;98.80;;;;;;5055181;28;20041;-75
2022/08/31 00:19:10;;;;;;;4.28;3.22;;;16.20;98.80;;;;;;5054532;28;20040;-75
2022/08/31 00:21:37;;;;;;;5.82;3.22;;;16.20;98.80;;;;;;5054898;28;20045;-74
2022/08/31 00:24:04;;;;;;;6.93;2.70;;;16.20;98.90;;;;;;5054419;28;20099;-74
2022/08/31 00:26:29;;;;;;;5.70;3.50;;;16.10;99.00;;;;;;5054930;28;20099;-74
2022/08/31 00:28:55;;;;;;;4.93;3.13;;;16.10;98.90;;;;;;5054897;28;20045;-74
2022/08/31 00:31:22;;;;;;;4.10;2.83;;;16.10;99.10;;;;;;5055199;28;20055;-75
2022/08/31 00:33:51;;;;;;;4.07;2.70;;;16.10;99.20;;;;;;5054802;28;20110;-74
2022/08/31 00:36:18;;;;;;;4.55;2.40;;;16.00;99.40;;;;;;5054965;28;20063;-74
2022/08/31 00:38:44;;;;;;;3.88;2.50;;;15.90;99.30;;;;;;5054319;28;20445;-74
2022/08/31 00:41:10;;;;;;;4.30;2.42;;;15.90;99.40;;;;;;5054955;28;20045;-74
2022/08/31 00:43:50;;;;;;;4.30;2.60;;;15.80;99.30;;;;;;5054944;28;20033;-75
2022/08/31 00:46:22;;;;;;;6.07;2.30;;;15.80;99.30;;;;;;5054545;28;20037;-75
2022/08/31 00:48:56;;;;;;;3.17;2.20;;;15.80;99.40;;;;;;5054729;28;20107;-74
2022/08/31 00:51:23;;;;;;;3.22;1.98;;;15.80;99.40;;;;;;5054669;28;20049;-74
2022/08/31 00:53:50;;;;;;;8.50;2.20;;;15.70;99.60;;;;;;5053832;28;20488;-75
2022/08/31 00:56:15;;;;;;;3.30;2.10;;;15.70;99.60;;;;;;5054712;28;20094;-74
2022/08/31 00:58:42;;;;;;;3.40;1.73;;;15.60;99.70;;;;;;5054542;28;20453;-75
2022/08/31 01:01:10;;;;;;;3.47;1.85;;;15.60;99.70;;;;;;5054245;28;20080;-74
2022/08/31 01:03:35;;;;;;;2.83;1.83;;;15.60;99.80;;;;;;5054450;28;20041;-74
2022/08/31 01:06:02;;;;;;;3.60;1.73;;;15.50;99.80;;;;;;5054585;28;20102;-74
2022/08/31 01:08:28;;;;;;;4.05;2.00;;;15.50;99.90;;;;;;5053703;28;20055;-75
2022/08/31 01:10:54;;;;;;;4.45;2.20;;;15.50;99.90;;;;;;5054762;28;20457;-75
2022/08/31 01:13:20;;;;;;;2.85;1.95;;;15.40;99.90;;;;;;5054321;28;20084;-75
2022/08/31 01:15:54;;;;;;;3.78;1.40;;;15.40;99.90;;;;;;5054851;28;20052;-74
2022/08/31 01:18:22;;;;;;;5.53;1.60;;;15.30;99.90;;;;;;5054455;28;20080;-74
2022/08/31 01:21:14;;;;;;;2.83;1.42;;;15.30;99.90;;;;;;5054525;28;20037;-74
2022/08/31 01:23:42;;;;;;;2.92;1.75;;;15.30;99.90;;;;;;5036392;28;20083;-74
2022/08/31 01:26:13;;;;;;;2.30;1.50;;;15.30;99.90;;;;;;5054212;28;20044;-75
2022/08/31 01:28:39;;;;;;;2.45;1.45;;;15.20;99.90;;;;;;5054078;28;20445;-74
2022/08/31 01:31:13;;;;;;;4.60;1.35;;;15.30;99.90;;;;;;5055994;28;20127;-74
2022/08/31 01:33:39;;;;;;;2.58;1.30;;;15.20;99.90;;;;;;5058267;28;20361;-74
2022/08/31 01:36:06;;;;;;;2.42;1.10;;;15.00;99.90;;;;;;5040660;28;20053;-74
2022/08/31 01:38:33;;;;;;;3.08;1.30;;;15.00;99.90;;;;;;5045222;28;20045;-74
2022/08/31 01:41:01;;;;;;;1.55;1.00;;;14.90;99.90;;;;;;5037658;28;20442;-74
2022/08/31 01:43:28;;;;;;;2.47;1.02;;;14.80;99.90;;;;;;5037670;28;20150;-75
2022/08/31 01:45:53;;;;;;;2.65;1.10;;;14.80;99.90;;;;;;5038125;28;20128;-74
2022/08/31 01:48:21;;;;;;;2.30;1.00;;;14.70;99.90;;;;;;5037850;28;20081;-74
2022/08/31 01:50:47;;;;;;;2.08;0.93;;;14.60;99.90;;;;;;5038106;28;20049;-74
2022/08/31 01:53:13;;;;;;;1.20;0.70;;;14.50;99.90;;;;;;5038059;28;20096;-74
2022/08/31 01:55:39;;;;;;;3.58;0.95;;;14.50;99.90;;;;;;5035474;28;20049;-74
2022/08/31 01:58:05;;;;;;;1.70;0.82;;;14.40;99.90;;;;;;5039856;28;20377;-74
2022/08/31 02:00:31;;;;;;;2.00;0.95;;;14.40;99.90;;;;;;5057611;28;20048;-74
2022/08/31 02:02:59;;;;;;;1.20;0.73;;;14.30;99.90;;;;;;5055848;28;20055;-74
2022/08/31 02:05:24;;;;;;;1.40;0.80;;;14.20;99.90;;;;;;5057773;28;20353;-74
2022/08/31 02:07:50;;;;;;;1.95;0.90;;;14.20;99.90;;;;;;5057610;28;20048;-74
2022/08/31 02:10:16;;;;;;;1.05;0.70;;;14.10;99.90;;;;;;5039823;28;20061;-74
2022/08/31 02:12:41;;;;;;;2.85;0.65;;;14.10;99.90;;;;;;5018550;28;20381;-75
2022/08/31 02:15:09;;;;;;;0.90;0.73;;;14.00;99.90;;;;;;5020056;28;20049;-74
2022/08/31 02:17:34;;;;;;;1.52;0.85;;;13.90;99.90;;;;;;5037434;28;20068;-73
2022/08/31 02:20:00;;;;;;;1.50;0.60;;;13.90;99.90;;;;;;5037291;28;20049;-74
2022/08/31 02:22:26;;;;;;;0.57;0.50;;;13.80;99.90;;;;;;5037605;28;20417;-74
2022/08/31 02:24:51;;;;;;;1.00;0.60;;;13.80;99.90;;;;;;5036957;28;20107;-74
2022/08/31 02:27:17;;;;;;;1.38;0.80;;;13.70;99.90;;;;;;5043300;28;20051;-74
2022/08/31 02:29:42;;;;;;;2.95;0.95;;;13.70;99.90;;;;;;5057257;28;20041;-74
2022/08/31 02:32:09;;;;;;;0.70;0.60;;;13.70;99.90;;;;;;5057352;28;20120;-73
2022/08/31 02:34:35;;;;;;;1.88;0.70;;;13.60;99.90;;;;;;5057328;28;20357;-74
2022/08/31 02:37:01;;;;;;;1.92;1.02;;;13.60;99.90;;;;;;5039079;28;20055;-74
2022/08/31 02:39:26;;;;;;;1.63;0.80;;;13.70;99.90;;;;;;5057297;28;20084;-74
2022/08/31 02:41:52;;;;;;;1.63;0.70;;;13.70;99.90;;;;;;5051398;28;20413;-74
2022/08/31 02:44:17;;;;;;;2.10;0.90;;;13.70;99.90;;;;;;5036866;28;20091;-75
2022/08/31 02:46:43;;;;;;;3.13;0.80;;;13.60;99.90;;;;;;5019747;28;20079;-74
2022/08/31 02:49:09;;;;;;;0.88;0.65;;;13.60;99.90;;;;;;5036683;28;20453;-74
2022/08/31 02:51:37;;;;;;;3.47;0.80;;;13.60;99.90;;;;;;5036777;28;20247;-74
2022/08/31 02:54:03;;;;;;;3.83;1.25;;;13.50;99.90;;;;;;5036651;28;20124;-74
2022/08/31 02:56:28;;;;;;;1.58;0.80;;;13.50;99.90;;;;;;5023160;28;20199;-75
2022/08/31 02:58:54;;;;;;;1.05;0.75;;;13.50;99.90;;;;;;5055680;28;20045;-74
2022/08/31 03:01:21;;;;;;;2.97;0.82;;;13.40;99.90;;;;;;5056549;28;20052;-74
2022/08/31 03:03:47;;;;;;;1.80;0.70;;;13.40;99.90;;;;;;5056501;28;20373;-74
2022/08/31 03:06:13;;;;;;;2.00;0.70;;;13.40;99.90;;;;;;5056397;28;20558;-75
2022/08/31 03:08:41;;;;;;;1.20;0.77;;;13.30;99.90;;;;;;5056796;28;20060;-74
2022/08/31 03:11:07;;;;;;;3.53;1.00;;;13.40;99.90;;;;;;5038951;28;20090;-74
2022/08/31 03:13:35;;;;;;;1.75;0.80;;;13.30;99.90;;;;;;5032490;28;20474;-74
2022/08/31 03:16:00;;;;;;;1.77;1.00;;;13.30;99.90;;;;;;5036535;28;20057;-73
2022/08/31 03:18:26;;;;;;;1.63;0.90;;;13.20;99.90;;;;;;5036101;28;20045;-74
2022/08/31 03:20:51;;;;;;;1.73;0.80;;;13.30;99.90;;;;;;5036432;28;20453;-74
2022/08/31 03:23:17;;;;;;;3.22;0.85;;;13.20;99.90;;;;;;5036049;28;20042;-74
2022/08/31 03:25:43;;;;;;;1.23;0.70;;;13.20;99.90;;;;;;5036086;28;20045;-73
2022/08/31 03:28:08;;;;;;;1.65;0.70;;;13.20;99.90;;;;;;5040982;28;20047;-74
2022/08/31 03:30:34;;;;;;;2.15;0.80;;;13.20;99.90;;;;;;5055437;28;20052;-73
2022/08/31 03:33:00;;;;;;;2.17;0.90;;;13.20;99.90;;;;;;5056068;28;20091;-74
2022/08/31 03:35:25;;;;;;;1.73;0.90;;;13.10;99.90;;;;;;5055860;28;20044;-74
2022/08/31 03:37:51;;;;;;;1.58;0.80;;;13.20;99.90;;;;;;5055575;28;20521;-73
2022/08/31 03:40:16;;;;;;;2.10;1.00;;;13.20;99.90;;;;;;5055738;28;20067;-74
2022/08/31 03:42:43;;;;;;;3.38;0.95;;;13.10;99.90;;;;;;5038507;28;20045;-74
2022/08/31 03:45:09;;;;;;;5.25;0.90;;;13.10;99.90;;;;;;5048815;28;20037;-75
2022/08/31 03:47:36;;;;;;;4.07;0.93;;;13.10;99.90;;;;;;5035907;28;20128;-74
2022/08/31 03:50:04;;;;;;;1.52;0.77;;;13.10;99.90;;;;;;5035663;28;20064;-74
2022/08/31 03:52:30;;;;;;;1.65;0.82;;;13.00;99.90;;;;;;5035439;28;20049;-73
2022/08/31 03:54:55;;;;;;;1.38;0.85;;;13.00;99.90;;;;;;5035251;28;20353;-74
2022/08/31 03:57:21;;;;;;;1.95;0.85;;;12.90;99.90;;;;;;5035818;28;20136;-74
2022/08/31 03:59:47;;;;;;;2.03;0.90;;;12.90;99.90;;;;;;5041855;28;20055;-74
2022/08/31 04:02:12;;;;;;;2.40;0.90;;;12.90;99.90;;;;;;5056034;28;20041;-71
2022/08/31 04:04:38;;;;;;;1.75;1.00;;;12.80;99.90;;;;;;5050732;28;20036;-71
2022/08/31 04:07:03;;;;;;;2.20;0.90;;;12.80;99.90;;;;;;5034856;28;20091;-71
2022/08/31 04:09:29;;;;;;;3.05;1.00;;;12.80;99.90;;;;;;5018390;28;20142;-71
2022/08/31 04:11:55;;;;;;;4.47;0.80;;;12.80;99.90;;;;;;5035600;28;20053;-72
2022/08/31 04:14:20;;;;;;;1.52;0.70;;;12.70;99.90;;;;;;5035008;28;20421;-73
2022/08/31 04:16:46;;;;;;;3.50;0.75;;;12.70;99.90;;;;;;5035281;28;20045;-72
2022/08/31 04:19:14;;;;;;;1.50;0.88;;;12.60;99.90;;;;;;5034467;28;20045;-74
2022/08/31 04:21:42;;;;;;;1.65;0.80;;;12.50;99.90;;;;;;5034631;28;20069;-72
2022/08/31 04:24:10;;;;;;;1.95;0.93;;;12.50;99.90;;;;;;5034655;28;20045;-71
2022/08/31 04:26:36;;;;;;;2.13;0.93;;;12.40;99.90;;;;;;5034614;28;20061;-72
2022/08/31 04:29:04;;;;;;;1.50;0.70;;;12.40;99.90;;;;;;5017472;28;20041;-71
2022/08/31 04:31:29;;;;;;;1.05;0.70;;;12.40;99.90;;;;;;5035237;28;20123;-72
2022/08/31 04:33:56;;;;;;;1.95;0.82;;;12.30;99.90;;;;;;5034720;28;20052;-72
2022/08/31 04:36:24;;;;;;;1.42;0.75;;;12.30;99.90;;;;;;5017729;28;20053;-73
2022/08/31 04:38:52;;;;;;;1.88;1.10;;;12.30;99.90;;;;;;5034554;28;20045;-72
2022/08/31 04:41:21;;;;;;;3.47;0.80;;;12.30;99.90;;;;;;5034883;28;20045;-70
2022/08/31 04:43:53;;;;;;;2.38;0.93;;;12.20;99.90;;;;;;5035052;28;20132;-70
2022/08/31 04:46:19;;;;;;;5.03;1.35;;;12.10;99.90;;;;;;5035666;28;20088;-70
2022/08/31 04:48:45;;;;;;;2.95;1.10;;;12.20;99.90;;;;;;5035032;28;20049;-70
2022/08/31 04:51:13;;;;;;;3.42;1.15;;;12.20;99.90;;;;;;5034802;28;20137;-69
2022/08/31 04:53:40;;;;;;;2.50;0.90;;;12.10;99.90;;;;;;5034290;28;20048;-70
2022/08/31 04:56:12;;;;;;;2.80;0.95;;;12.10;99.90;;;;;;4983865;28;20085;-70
2022/08/31 04:58:38;;;;;;;2.92;1.00;;;12.10;99.90;;;;;;5034702;28;20045;-69
2022/08/31 05:01:08;;;;;;;1.77;0.90;;;12.00;99.90;;;;;;5034814;28;20041;-69
2022/08/31 05:03:33;;;;;;;4.22;1.00;;;12.00;99.90;;;;;;5035078;28;20111;-70
2022/08/31 05:05:59;;;;;;;1.38;0.90;;;12.00;99.90;;;;;;5037697;28;20124;-69
2022/08/31 05:08:25;;;;;;;3.35;1.40;;;12.10;99.90;;;;;;5038063;28;20053;-69
2022/08/31 05:10:50;;;;;;;2.97;1.30;;;11.90;99.90;;;;;;5045737;28;20505;-69
2022/08/31 05:13:16;;;;;;;5.65;1.90;;;12.00;99.90;;;;;;5058376;28;20516;-69
2022/08/31 05:15:43;;;;;;;3.00;1.00;;;12.00;99.90;;;;;;5041405;28;20339;-70
2022/08/31 05:18:09;;;;;;;1.80;0.95;;;11.90;99.90;;;;;;5058257;28;20080;-69
2022/08/31 05:20:35;;;;;;;2.75;1.17;;;12.00;99.90;;;;;;5058362;28;20041;-72
2022/08/31 05:23:01;;;;;;;3.33;1.48;;;12.00;99.90;;;;;;5058523;28;20045;-72
2022/08/31 05:25:26;;;;;;;5.03;1.20;;;12.00;99.90;;;;;;5053389;28;20049;-72
2022/08/31 05:27:53;;;;;;;5.50;1.40;;;12.10;99.90;;;;;;5038190;28;20361;-73
2022/08/31 05:30:19;;;;;;;9.65;1.27;;;12.10;99.90;;;;;;5038022;28;20454;-72
2022/08/31 05:32:45;;;;;;;1.77;1.00;;;12.20;99.90;;;;;;5038149;28;20110;-72
2022/08/31 05:35:11;;;;;;;1.77;1.05;;;12.20;99.90;;;;;;5037945;28;20362;-73
2022/08/31 05:37:36;;;;;;;1.92;0.95;;;12.30;99.90;;;;;;5037946;28;20425;-72
2022/08/31 05:40:02;;;;;;;1.52;0.90;;;12.20;99.90;;;;;;5040502;28;20041;-72
2022/08/31 05:42:28;;;;;;;2.42;1.27;;;12.30;99.90;;;;;;5057936;28;20041;-72
2022/08/31 05:44:54;;;;;;;1.50;0.90;;;12.30;99.90;;;;;;5057863;28;20048;-72
2022/08/31 05:47:19;;;;;;;1.88;0.80;;;12.40;99.90;;;;;;5058172;28;20084;-72
2022/08/31 05:49:45;;;;;;;1.88;1.20;;;12.40;99.90;;;;;;5057719;28;20045;-72
2022/08/31 05:52:10;;;;;;;1.98;0.98;;;12.40;99.90;;;;;;5058174;28;20048;-72
2022/08/31 05:54:36;;;;;;;1.50;0.82;;;12.50;99.90;;;;;;5055994;28;20048;-73
2022/08/31 05:57:03;;;;;;;2.35;1.10;;;12.50;99.90;;;;;;5037529;28;20102;-73
2022/08/31 05:59:29;;;;;;;3.03;0.80;;;12.50;99.90;;;;;;5037651;28;20049;-72
2022/08/31 06:01:55;;;;;;;3.30;0.90;;;12.60;99.90;;;;;;5037650;28;20037;-73
2022/08/31 06:04:21;;;;;;;3.75;1.50;;;13.00;99.90;;;;;;5020761;28;20101;-73
2022/08/31 06:06:46;;;;;;;3.20;1.15;;;13.30;99.90;;;;;;5037794;28;20349;-72
2022/08/31 06:09:12;;;;;;;5.30;0.93;;;14.10;99.90;;;;;;5037720;28;20041;-72
2022/08/31 06:11:40;;;;;;;2.40;0.90;;;15.20;99.90;;;;;;5036712;28;20061;-72
2022/08/31 06:14:08;;;;;;;2.25;1.08;;;16.30;99.90;;;;;;5037114;28;20124;-73
2022/08/31 06:16:35;;;;;;;2.13;0.88;;;17.80;99.90;;;;;;5036460;28;20045;-72
2022/08/31 06:19:05;;;;;;;1.25;0.80;;;19.10;99.90;;;;;;5037650;28;20335;-73
2022/08/31 06:21:34;;;;;;;2.58;1.00;;;20.30;99.90;;;;;;5037390;28;20414;-73
2022/08/31 06:24:03;;;;;;;1.55;0.80;;;21.30;99.90;;;;;;5037475;28;20049;-73
2022/08/31 06:26:31;;;;;;;6.75;1.20;;;22.10;98.30;;;;;;5037210;28;20080;-74
2022/08/31 06:29:03;;;;;;;2.08;0.80;;;22.90;96.80;;;;;;5036593;28;20080;-73
2022/08/31 06:31:32;;;;;;;2.13;0.80;;;23.30;94.20;;;;;;5037034;28;20433;-73
2022/08/31 06:33:59;;;;;;;5.50;0.75;;;23.50;93.90;;;;;;5037120;28;20045;-73
2022/08/31 06:36:26;;;;;;;2.40;0.80;;;23.70;95.20;;;;;;5037266;28;20052;-73
2022/08/31 06:38:54;;;;;;;1.73;0.88;;;24.00;95.10;;;;;;5036744;28;20045;-73
2022/08/31 06:41:25;;;;;;;2.13;0.88;;;24.40;94.30;;;;;;5037263;28;20048;-73
2022/08/31 06:43:51;;;;;;;0.60;0.50;;;24.70;93.00;;;;;;5036366;28;20107;-74
2022/08/31 06:46:18;;;;;;;1.40;0.60;;;24.30;93.50;;;;;;5036999;28;20400;-73
2022/08/31 06:48:44;;;;;;;1.75;0.60;;;23.20;93.40;;;;;;5036873;28;20045;-72
2022/08/31 06:51:11;;;;;;;3.53;1.08;;;22.10;94.00;;;;;;5036639;28;20045;-72
2022/08/31 06:53:41;;;;;;;2.50;0.75;;;21.20;94.50;;;;;;5037335;28;20060;-73
2022/08/31 06:56:11;;;;;;;1.75;0.98;;;20.40;95.40;;;;;;5037265;28;20381;-73
2022/08/31 06:58:37;;;;;;;1.35;0.70;;;19.80;96.10;;;;;;5036317;28;20049;-73
2022/08/31 07:01:06;;;;;;;1.38;0.68;;;19.30;96.60;;;;;;5036725;28;20095;-73
2022/08/31 07:03:34;;;;;;;2.67;0.80;;;18.80;97.50;;;;;;5036284;28;20041;-73
2022/08/31 07:06:21;;;;;;;1.63;0.80;;;18.50;97.90;;;;;;5036370;28;20125;-73
2022/08/31 07:08:53;;;;;;;1.55;0.63;;;18.40;98.10;;;;;;5036813;28;20046;-72
2022/08/31 07:11:34;;;;;;;1.38;0.70;;;18.10;98.70;;;;;;5047699;28;20053;-72
2022/08/31 07:14:01;;;;;;;2.17;0.88;;;17.90;99.10;;;;;;5056286;28;20080;-73
2022/08/31 07:16:27;;;;;;;1.40;0.80;;;17.80;99.30;;;;;;5056457;28;20361;-73
2022/08/31 07:18:54;;;;;;;1.35;0.80;;;17.70;99.40;;;;;;5039905;28;20068;-72
2022/08/31 07:21:29;;;;;;;2.67;0.80;;;17.60;99.30;;;;;;5036187;28;20042;-73
2022/08/31 07:23:57;;;;;;;1.45;0.80;;;17.60;99.70;;;;;;5018652;28;20045;-73
2022/08/31 07:26:26;;;;;;;1.27;0.70;;;17.60;99.50;;;;;;5036273;28;20033;-73
2022/08/31 07:28:54;;;;;;;2.95;0.73;;;17.60;99.40;;;;;;5034845;28;20091;-74
2022/08/31 07:31:22;;;;;;;1.33;0.80;;;17.50;99.40;;;;;;5035901;28;20049;-73
2022/08/31 07:33:49;;;;;;;1.95;0.70;;;17.60;99.40;;;;;;5052121;28;20444;-73
2022/08/31 07:36:16;;;;;;;2.28;0.80;;;17.60;99.40;;;;;;5055921;28;20142;-72
2022/08/31 07:44:12;;;;;;;1.88;0.70;;;17.70;99.30;;;;;;5055773;28;20548;-73
2022/08/31 07:46:38;;;;;;;1.33;0.73;;;17.80;99.30;;;;;;5055610;28;20101;-73
2022/08/31 07:49:12;;;;;;;1.17;0.73;;;17.80;99.20;;;;;;5051435;28;20037;-73
2022/08/31 07:51:49;;;;;;;1.23;0.70;;;17.80;98.90;;;;;;5035543;28;20056;-73
2022/08/31 07:54:17;;;;;;;3.90;0.80;;;17.90;98.70;;;;;;5036361;28;20060;-73
2022/08/31 07:56:45;;;;;;;1.15;0.50;;;17.80;98.20;;;;;;5035485;28;20049;-73
2022/08/31 07:59:13;;;;;;;2.63;0.70;;;17.80;98.90;;;;;;5035816;28;20049;-73
2022/08/31 08:01:42;;;;;;;3.35;0.70;;;18.00;98.90;;;;;;5035224;28;20053;-74
2022/08/31 08:04:08;;;;;;;2.72;0.80;;;17.90;98.80;;;;;;5040453;28;20041;-72
2022/08/31 08:06:34;;;;;;;1.88;0.70;;;18.00;98.70;;;;;;5054893;28;20156;-74
2022/08/31 08:09:05;;;;;;;0.93;0.70;;;18.10;98.30;;;;;;5055575;28;20124;-73
2022/08/31 08:11:34;;;;;;;0.55;0.50;;;18.20;98.70;;;;;;5055368;28;20127;-73
2022/08/31 08:13:59;;;;;;;1.48;0.90;;;18.10;98.30;;;;;;5055474;28;20041;-73
2022/08/31 08:16:25;;;;;;;2.08;0.60;;;18.20;98.60;;;;;;5038551;28;20056;-74
2022/08/31 08:18:50;;;;;;;3.33;0.82;;;18.20;99.30;;;;;;5054776;28;20366;-74
2022/08/31 08:21:16;;;;;;;2.40;0.80;;;18.40;98.90;;;;;;5045639;28;20049;-73
2022/08/31 08:23:41;;;;;;;3.58;0.93;;;18.30;98.40;;;;;;5034957;28;20047;-73
2022/08/31 08:26:09;;;;;;;3.75;0.63;;;18.40;98.80;;;;;;5034982;28;20405;-73
2022/08/31 08:28:34;;;;;;;1.55;0.70;;;18.50;98.90;;;;;;5035046;28;20406;-73
2022/08/31 08:31:00;;;;;;;1.55;0.70;;;18.60;98.60;;;;;;5035158;28;20128;-73
2022/08/31 08:33:30;;;;;;;0.80;0.50;;;19.10;98.80;;;;;;5035198;28;20055;-74
2022/08/31 08:35:57;;;;;;;1.35;0.60;;;20.00;96.90;;;;;;5035409;28;20045;-73
2022/08/31 08:38:24;;;;;;;1.10;0.70;;;20.80;96.10;;;;;;5046662;28;20041;-73
2022/08/31 08:40:51;;;;;;;0.70;0.50;;;21.60;95.20;;;;;;5054477;28;20076;-73
2022/08/31 08:43:19;;;;;;;1.30;0.63;;;21.90;94.80;;;;;;5055169;28;20053;-73
2022/08/31 08:45:49;;;;;;;0.80;0.60;;;22.20;94.40;;;;;;5054872;28;20044;-74
2022/08/31 08:48:20;;;;;;;1.95;1.15;;;22.40;94.00;;;;;;5054923;28;20052;-73
2022/08/31 08:50:46;;;;;;;2.17;0.60;;;22.10;93.90;;;;;;5054565;28;20140;-72
2022/08/31 08:53:14;;;;;;;2.38;0.60;;;22.00;93.90;;;;;;5041379;28;20521;-73
2022/08/31 08:55:41;;;;;;;2.10;0.88;;;21.80;94.40;;;;;;5034845;28;20057;-73
2022/08/31 08:58:10;;;;;;;2.55;0.80;;;21.50;94.50;;;;;;5034844;28;20469;-73
2022/08/31 09:00:37;;;;;;;0.70;0.50;;;21.40;94.60;;;;;;5034828;28;20057;-73
2022/08/31 09:03:06;;;;;;;0.50;0.50;;;21.10;94.50;;;;;;5034805;28;20091;-73
2022/08/31 09:06:00;;;;;;;0.73;0.52;;;20.80;94.70;;;;;;5034651;28;20060;-73
2022/08/31 09:08:44;;;;;;;1.42;0.57;;;20.60;94.90;;;;;;5050945;28;20059;-73
2022/08/31 09:11:24;;;;;;;0.75;0.60;;;20.50;95.20;;;;;;5014830;28;20050;-73
2022/08/31 09:14:17;;;;;;;1.08;0.60;;;20.40;95.40;;;;;;5014955;28;20058;-73
2022/08/31 09:17:01;;;;;;;1.02;0.63;;;20.40;95.70;;;;;;5014864;28;20445;-73
2022/08/31 09:19:26;;;;;;;1.80;0.80;;;20.40;95.40;;;;;;5014714;28;20070;-73
2022/08/31 09:21:56;;;;;;;5.38;0.70;;;20.60;94.80;;;;;;5014721;28;20050;-73
2022/08/31 09:24:26;;;;;;;2.45;0.52;;;21.00;94.80;;;;;;5023793;28;20116;-73
2022/08/31 09:27:18;;;;;;;2.88;0.65;;;21.30;94.40;;;;;;5033993;28;20365;-73
2022/08/31 09:30:00;;;;;;;1.52;0.73;;;21.80;93.90;;;;;;5034440;28;20437;-73
2022/08/31 09:32:30;;;;;;;1.35;0.60;;;22.30;93.40;;;;;;5034437;28;20041;-73
2022/08/31 09:35:20;;;;;;;1.17;0.70;;;22.60;93.10;;;;;;5034243;28;20049;-73
2022/08/31 09:38:01;;;;;;;1.10;0.57;;;23.00;92.80;;;;;;5033354;28;20136;-73
2022/08/31 09:40:40;;;;;;;1.77;0.60;;;23.00;92.50;;;;;;5034241;28;20890;-72
2022/08/31 09:43:13;;;;;;;1.35;0.75;;;22.50;92.70;;;;;;5034130;28;20501;-73
2022/08/31 09:45:58;;;;;;;3.88;0.68;;;21.70;93.40;;;;;;5034488;28;20053;-74
2022/08/31 09:48:55;;;;;;;2.10;0.65;;;21.30;93.80;;;;;;5034228;28;20370;-73
2022/08/31 09:51:36;;;;;;;2.42;0.60;;;21.20;94.40;;;;;;5017384;28;20193;-73
2022/08/31 09:56:56;;;;;;;2.28;0.75;;;21.10;94.40;;;;;;5037754;28;20049;-73
2022/08/31 09:59:50;;;;;;;2.13;0.70;;;21.30;93.80;;;;;;5037567;28;20051;-72
2022/08/31 10:02:21;;;;;;;1.15;0.50;;;21.40;94.00;;;;;;5014792;28;20050;-72
2022/08/31 10:04:53;;;;;;;1.77;0.63;;;21.30;93.70;;;;;;5026900;28;20046;-73
2022/08/31 10:08:17;;;;;;;0.80;0.60;;;21.30;93.60;;;;;;5037527;28;20409;-73
2022/08/31 10:10:44;;;;;;;1.90;0.70;;;21.30;93.50;;;;;;4938126;28;20060;-73
2022/08/31 10:13:20;;;;;;;2.03;0.70;;;21.50;93.00;;;;;;4938245;29;20043;-73
2022/08/31 10:15:59;;;;;;;1.75;0.70;;;21.50;93.00;;;;;;4993484;28;20054;-73
2022/08/31 10:18:56;;;;;;;7.88;0.60;;;21.70;93.00;;;;;;5036827;28;20385;-73
2022/08/31 10:21:44;;;;;;;6.22;0.93;;;21.60;92.80;;;;;;5028039;28;20057;-73
2022/08/31 10:24:33;;;;;;;1.30;0.60;;;21.70;92.90;;;;;;5037180;28;20069;-73
2022/08/31 10:27:17;;;;;;;1.90;0.70;;;21.70;92.60;;;;;;5037305;28;20080;-73
2022/08/31 10:30:04;;;;;;;2.83;0.85;;;21.70;92.60;;;;;;5020024;28;20045;-74
2022/08/31 10:32:40;;;;;;;1.75;0.60;;;21.50;92.40;;;;;;5019075;28;20124;-73
2022/08/31 10:35:18;;;;;;;0.98;0.65;;;21.40;92.30;;;;;;5037475;28;20045;-73
2022/08/31 10:38:24;;;;;;;1.55;0.70;;;21.20;92.20;;;;;;5037273;28;20041;-73
2022/08/31 10:41:09;;;;;;;1.48;0.60;;;21.20;92.80;;;;;;4975985;28;20046;-73
2022/08/31 10:43:47;;;;;;;5.60;1.05;;;21.40;93.40;;;;;;5035032;28;20092;-73
2022/08/31 10:46:14;;;;;;;1.23;0.68;;;21.30;92.60;;;;;;5036412;28;20477;-73
2022/08/31 10:48:45;;;;;;;1.83;0.60;;;21.10;92.00;;;;;;5037568;28;20346;-74
2022/08/31 10:51:18;;;;;;;0.90;0.60;;;21.10;92.50;;;;;;5035856;28;20041;-72
2022/08/31 10:54:05;;;;;;;3.00;0.85;;;20.90;91.90;;;;;;5037048;28;20053;-72
2022/08/31 10:56:45;;;;;;;2.47;0.80;;;20.70;92.50;;;;;;5036356;28;20442;-72
2022/08/31 10:59:41;;;;;;;3.03;0.60;;;20.70;93.10;;;;;;5036617;28;20050;-73
2022/08/31 11:02:16;;;;;;;4.07;0.88;;;21.00;92.80;;;;;;5034278;28;20058;-72
2022/08/31 11:04:47;;;;;;;2.30;0.60;;;21.10;92.50;;;;;;5035871;28;20041;-72
2022/08/31 11:07:37;;;;;;;2.60;0.70;;;21.30;92.20;;;;;;5036704;28;20366;-72
2022/08/31 11:10:36;;;;;;;2.08;0.70;;;21.50;92.20;;;;;;5037008;28;20053;-72
2022/08/31 11:13:16;;;;;;;1.17;0.70;;;21.60;91.80;;;;;;5055960;28;20131;-73
2022/08/31 11:16:07;;;;;;;1.83;0.73;;;21.70;92.10;;;;;;5056167;28;20045;-72
2022/08/31 11:18:55;;;;;;;5.85;0.60;;;21.90;91.90;;;;;;5053136;28;20056;-72
2022/08/31 11:21:44;;;;;;;2.92;0.65;;;21.90;91.10;;;;;;5015612;28;20058;-71
2022/08/31 11:24:42;;;;;;;4.50;0.77;;;21.90;90.80;;;;;;5016503;28;20045;-72
2022/08/31 11:27:22;;;;;;;2.40;0.50;;;21.90;91.10;;;;;;5016157;28;20049;-73
2022/08/31 11:29:56;;;;;;;4.10;0.80;;;22.00;90.40;;;;;;5016206;28;20099;-72
2022/08/31 11:32:40;;;;;;;2.67;0.77;;;22.00;91.50;;;;;;5016237;28;20053;-72
2022/08/31 11:35:09;;;;;;;1.83;0.80;;;22.20;91.00;;;;;;5030943;28;20132;-73
2022/08/31 11:37:58;;;;;;;0.52;0.50;;;22.20;89.40;;;;;;5038256;28;20120;-72
2022/08/31 11:40:42;;;;;;;3.45;0.77;;;22.30;90.80;;;;;;5056012;28;20037;-72
2022/08/31 11:43:29;;;;;;;2.15;0.90;;;22.50;90.00;;;;;;5055887;28;20052;-72
2022/08/31 11:46:00;;;;;;;2.22;0.77;;;22.50;89.20;;;;;;5056132;28;20084;-72
2022/08/31 11:48:50;;;;;;;7.80;0.90;;;22.60;89.70;;;;;;5037050;28;20053;-73
2022/08/31 11:51:36;;;;;;;3.00;0.70;;;22.70;90.10;;;;;;5035530;28;20049;-72
2022/08/31 11:54:12;;;;;;;2.15;0.55;;;22.70;88.60;;;;;;5035446;28;20041;-72
2022/08/31 11:56:41;;;;;;;2.78;0.60;;;22.80;88.70;;;;;;5036281;28;20377;-72
2022/08/31 11:59:32;;;;;;;1.00;0.50;;;22.90;89.30;;;;;;5050266;28;20390;-72
2022/08/31 12:02:18;;;;;;;15.75;0.85;;;23.00;88.10;;;;;;5055417;28;20080;-72
2022/08/31 12:04:47;;;;;;;3.67;0.63;;;23.00;89.10;;;;;;5055356;28;20045;-73
2022/08/31 12:07:29;;;;;;;2.08;0.70;;;22.90;88.20;;;;;;5055533;28;20055;-72
2022/08/31 12:10:35;;;;;;;1.13;0.60;;;22.90;89.60;;;;;;5055289;28;20102;-72
2022/08/31 12:13:11;;;;;;;1.40;0.70;;;22.90;89.00;;;;;;5046816;28;20053;-72
2022/08/31 12:16:05;;;;;;;3.08;0.70;;;23.00;88.20;;;;;;5033710;28;20061;-72
2022/08/31 12:18:48;;;;;;;1.13;0.60;;;23.00;88.20;;;;;;5035483;28;20053;-72
2022/08/31 12:24:55;;;;;;;2.60;0.60;;;23.10;87.90;;;;;;5035216;28;20065;-73
2022/08/31 12:27:44;;;;;;;1.65;0.70;;;23.00;88.60;;;;;;5039165;28;20041;-72
2022/08/31 12:30:21;;;;;;;1.33;0.70;;;23.00;89.10;;;;;;5053736;28;20373;-72
2022/08/31 12:33:03;;;;;;;1.48;0.65;;;23.10;87.70;;;;;;5055152;28;20094;-72
2022/08/31 12:35:31;;;;;;;1.33;0.60;;;23.20;87.50;;;;;;5055154;28;20365;-73
2022/08/31 12:38:06;;;;;;;1.80;0.68;;;23.30;88.40;;;;;;5019809;28;20060;-72
2022/08/31 12:40:39;;;;;;;1.95;0.43;;;23.40;87.10;;;;;;5054725;28;20041;-73
2022/08/31 12:43:16;;;;;;;3.20;0.93;;;23.30;87.60;;;;;;5055035;28;20049;-72
2022/08/31 12:46:15;;;;;;;3.17;0.98;;;23.30;88.10;;;;;;5036625;28;20057;-72
2022/08/31 12:49:15;;;;;;;3.40;0.80;;;23.30;88.30;;;;;;5034550;28;20537;-73
2022/08/31 12:52:09;;;;;;;1.20;0.70;;;23.40;88.70;;;;;;5034938;28;20103;-72
2022/08/31 12:54:48;;;;;;;1.00;0.63;;;23.40;87.60;;;;;;5034738;28;20042;-72
2022/08/31 12:58:01;;;;;;;1.45;0.63;;;23.50;85.70;;;;;;5035137;28;20041;-72
2022/08/31 13:00:33;;;;;;;3.37;0.60;;;23.20;85.90;;;;;;4992171;28;20117;-73
2022/08/31 13:03:18;;;;;;;0.87;0.50;;;23.30;86.60;;;;;;4993175;28;20049;-72
2022/08/31 13:05:59;;;;;;;1.95;0.50;;;23.30;87.90;;;;;;5007296;28;20120;-72
2022/08/31 13:08:26;;;;;;;2.00;0.57;;;23.30;86.80;;;;;;5015098;28;20038;-72
2022/08/31 13:10:52;;;;;;;0.80;0.50;;;23.50;86.20;;;;;;5023038;28;20319;-72
2022/08/31 13:13:27;;;;;;;0.88;0.55;;;23.50;86.10;;;;;;5036511;28;20060;-72
2022/08/31 13:16:06;;;;;;;1.30;0.73;;;23.60;85.60;;;;;;5054552;28;20076;-72
2022/08/31 13:18:33;;;;;;;2.42;0.65;;;23.70;85.00;;;;;;5054383;28;20049;-72
2022/08/31 13:21:04;;;;;;;0.95;0.55;;;23.70;85.80;;;;;;5054790;28;20045;-72
2022/08/31 13:23:37;;;;;;;1.48;0.60;;;23.70;85.60;;;;;;5036722;28;20041;-72
2022/08/31 13:26:19;;;;;;;1.85;0.80;;;23.70;85.00;;;;;;5055873;28;20041;-72